Time;durP1;ratioP1;P1;durP2;ratioP2;P2;SDS_P1;SDS_P2;PMS_P1;PMS_P2;Temp;Humidity;BMP_temperature;BMP_pressure;BME280_temperature;BME280_humidity;BME280_pressure;Samples;Min_cycle;Max_cycle;Signal;HPM_P1;HPM_P2
2021/05/21 00:01:39;;;;;;;4.10;1.40;;;16.00;82.80;;;;;;5028854;28;20483;-83
2021/05/21 00:04:19;;;;;;;1.50;1.40;;;16.00;83.40;;;;;;5027398;28;20473;-81
2021/05/21 00:06:55;;;;;;;1.40;1.17;;;16.00;83.20;;;;;;5032187;28;20440;-83
2021/05/21 00:09:28;;;;;;;1.00;1.00;;;16.00;82.70;;;;;;5027240;28;20458;-84
2021/05/21 00:11:58;;;;;;;1.93;1.23;;;16.00;82.90;;;;;;5025102;28;20453;-83
2021/05/21 00:14:33;;;;;;;3.33;1.30;;;15.90;83.20;;;;;;5025917;28;21322;-83
2021/05/21 00:17:51;;;;;;;1.87;1.40;;;15.90;83.20;;;;;;5032931;28;20458;-84
2021/05/21 00:20:27;;;;;;;3.10;1.30;;;15.80;83.70;;;;;;5090356;28;20524;-85
2021/05/21 00:23:17;;;;;;;0.93;0.93;;;15.80;83.90;;;;;;5015189;28;20481;-84
2021/05/21 00:25:50;;;;;;;1.23;1.00;;;15.80;84.00;;;;;;5017357;28;20860;-85
2021/05/21 00:28:38;;;;;;;4.03;1.03;;;15.70;83.90;;;;;;5020837;28;20453;-84
2021/05/21 00:31:49;;;;;;;3.40;0.90;;;15.80;84.50;;;;;;5022410;28;20559;-85
2021/05/21 00:34:49;;;;;;;1.43;1.00;;;15.90;83.90;;;;;;4886501;28;20451;-81
2021/05/21 00:37:24;;;;;;;1.70;1.20;;;15.90;81.70;;;;;;4952599;28;20443;-82
2021/05/21 00:39:54;;;;;;;1.10;1.00;;;15.90;82.20;;;;;;5007089;28;20473;-82
2021/05/21 00:42:36;;;;;;;1.93;1.63;;;15.80;82.50;;;;;;5011742;28;20609;-81
2021/05/21 00:45:10;;;;;;;1.87;1.10;;;16.00;83.40;;;;;;5042563;28;20489;-81
2021/05/21 00:47:42;;;;;;;1.60;1.50;;;15.80;83.30;;;;;;5032198;28;20437;-84
2021/05/21 00:50:18;;;;;;;2.10;1.03;;;15.90;83.00;;;;;;5035007;28;20538;-84
2021/05/21 00:52:45;;;;;;;1.37;1.10;;;16.10;81.70;;;;;;5032564;28;20478;-82
2021/05/21 00:55:24;;;;;;;2.20;1.10;;;16.10;80.70;;;;;;5035327;28;20471;-84
2021/05/21 00:58:00;;;;;;;1.57;1.47;;;16.10;80.70;;;;;;5035103;28;20439;-84
2021/05/21 01:00:29;;;;;;;1.47;0.93;;;16.10;80.90;;;;;;5028148;28;20525;-82
2021/05/21 01:03:03;;;;;;;0.80;0.80;;;16.10;80.30;;;;;;5012266;28;20559;-81
2021/05/21 01:05:35;;;;;;;1.10;1.00;;;16.10;79.60;;;;;;5007976;28;20522;-82
2021/05/21 01:08:13;;;;;;;0.90;0.90;;;16.00;78.90;;;;;;5010647;28;20486;-84
2021/05/21 01:10:52;;;;;;;2.10;1.00;;;16.00;79.20;;;;;;5005627;28;20534;-83
2021/05/21 01:13:22;;;;;;;1.33;0.80;;;16.00;79.20;;;;;;5007307;28;20482;-83
2021/05/21 01:16:06;;;;;;;1.00;0.80;;;16.10;79.00;;;;;;5004822;28;20534;-82
2021/05/21 01:18:45;;;;;;;1.57;0.80;;;15.90;78.80;;;;;;5005853;28;20519;-84
2021/05/21 01:21:35;;;;;;;1.17;0.83;;;15.90;79.00;;;;;;5003823;28;20496;-83
2021/05/21 01:24:11;;;;;;;1.47;0.97;;;15.90;78.90;;;;;;5004657;28;20486;-83
2021/05/21 01:26:41;;;;;;;1.07;0.90;;;16.00;78.80;;;;;;5007661;28;20463;-81
2021/05/21 01:29:46;;;;;;;1.60;1.10;;;16.00;79.00;;;;;;5008265;28;20526;-84
2021/05/21 01:32:22;;;;;;;2.93;1.33;;;15.90;78.60;;;;;;5008503;28;21026;-82
2021/05/21 01:34:53;;;;;;;0.80;0.80;;;15.90;78.70;;;;;;5009803;28;20515;-82
2021/05/21 01:37:33;;;;;;;2.73;1.20;;;15.90;78.90;;;;;;5010803;28;20462;-83
2021/05/21 01:40:26;;;;;;;1.00;0.90;;;15.90;79.00;;;;;;5023496;28;20494;-83
2021/05/21 01:43:00;;;;;;;0.97;0.83;;;15.90;79.10;;;;;;5019380;28;20498;-82
2021/05/21 01:45:33;;;;;;;1.60;0.90;;;15.90;79.40;;;;;;5021152;28;20482;-82
2021/05/21 01:48:31;;;;;;;;;;;;;;;;;;;;;
2021/05/21 01:51:39;;;;;;;;;;;;;;;;;;;;;
2021/05/21 01:54:58;;;;;;;1.57;1.10;;;15.80;80.30;;;;;;5019093;28;20535;-82
2021/05/21 01:57:35;;;;;;;1.80;1.03;;;15.80;80.40;;;;;;5017522;28;20462;-82
2021/05/21 02:00:22;;;;;;;1.30;0.90;;;15.80;80.60;;;;;;5020364;28;20453;-84
2021/05/21 02:02:53;;;;;;;1.00;0.90;;;15.80;80.80;;;;;;5020441;28;20558;-86
2021/05/21 02:05:30;;;;;;;1.07;0.90;;;15.90;81.00;;;;;;5030599;28;20473;-82
2021/05/21 02:08:13;;;;;;;0.97;0.80;;;15.90;81.20;;;;;;5025539;28;20450;-80
2021/05/21 02:10:46;;;;;;;1.10;1.00;;;15.90;81.00;;;;;;5019248;28;20473;-81
2021/05/21 02:13:23;;;;;;;0.97;0.83;;;15.80;81.50;;;;;;5028279;28;20467;-83
2021/05/21 02:15:59;;;;;;;2.27;0.90;;;15.80;80.80;;;;;;5031134;28;20434;-84
2021/05/21 02:18:31;;;;;;;2.30;1.40;;;15.60;82.20;;;;;;5034159;28;20514;-84
2021/05/21 02:21:05;;;;;;;1.00;0.90;;;15.90;82.10;;;;;;5018692;28;20451;-83
2021/05/21 02:23:45;;;;;;;1.80;0.97;;;15.80;81.90;;;;;;4997243;28;20485;-82
2021/05/21 02:26:12;;;;;;;1.20;0.80;;;15.70;82.50;;;;;;5011418;28;20517;-83
2021/05/21 02:28:39;;;;;;;1.37;0.73;;;15.80;82.70;;;;;;5006841;28;20515;-81
2021/05/21 02:31:06;;;;;;;0.97;0.87;;;15.80;81.90;;;;;;5006243;28;20470;-81
2021/05/21 02:33:34;;;;;;;2.47;1.07;;;15.80;82.00;;;;;;5007483;28;21991;-81
2021/05/21 02:36:01;;;;;;;2.67;1.07;;;15.80;82.20;;;;;;5003587;28;20448;-82
2021/05/21 02:38:28;;;;;;;2.60;1.00;;;15.70;82.40;;;;;;5000977;28;20465;-84
2021/05/21 02:40:55;;;;;;;2.07;0.87;;;15.80;82.30;;;;;;5003636;28;20466;-82
2021/05/21 02:43:23;;;;;;;1.77;1.03;;;15.70;82.50;;;;;;5002029;28;20485;-82
2021/05/21 02:45:50;;;;;;;0.90;0.90;;;15.80;82.40;;;;;;4996803;28;20461;-83
2021/05/21 02:48:18;;;;;;;2.07;0.80;;;15.70;82.50;;;;;;4997847;28;20634;-82
2021/05/21 02:50:46;;;;;;;0.73;0.73;;;15.80;82.50;;;;;;4996547;28;20462;-82
2021/05/21 02:53:13;;;;;;;1.03;0.97;;;15.70;82.40;;;;;;5001192;28;20470;-82
2021/05/21 02:55:42;;;;;;;3.47;1.10;;;15.60;83.30;;;;;;4999893;28;21173;-82
2021/05/21 02:58:09;;;;;;;2.93;1.13;;;15.60;83.00;;;;;;4999202;28;20644;-84
2021/05/21 03:00:36;;;;;;;4.40;1.30;;;15.60;83.10;;;;;;4998979;28;20458;-84
2021/05/21 03:03:03;;;;;;;2.73;2.07;;;15.60;83.30;;;;;;4998265;28;20925;-85
2021/05/21 03:05:30;;;;;;;0.90;0.90;;;15.50;83.20;;;;;;4994382;28;20575;-84
2021/05/21 03:07:58;;;;;;;2.80;1.23;;;15.60;83.10;;;;;;4997907;28;20455;-81
2021/05/21 03:10:27;;;;;;;1.80;0.90;;;15.60;83.00;;;;;;4998454;28;20470;-83
2021/05/21 03:13:01;;;;;;;1.73;1.10;;;15.50;83.20;;;;;;5096779;22;20494;-80
2021/05/21 03:16:23;;;;;;;2.40;0.90;;;15.60;83.10;;;;;;5059118;28;20454;-82
2021/05/21 03:20:08;;;;;;;;;;;;;;;;;;;;;
2021/05/21 03:22:55;;;;;;;1.50;0.70;;;15.50;83.80;;;;;;4954011;28;20444;-84
2021/05/21 03:25:27;;;;;;;5.63;1.20;;;15.40;83.60;;;;;;5019394;28;20580;-83
2021/05/21 03:27:57;;;;;;;1.20;1.10;;;15.40;83.80;;;;;;5005493;28;20519;-83
2021/05/21 03:30:35;;;;;;;1.10;1.00;;;15.40;84.00;;;;;;5006551;28;21207;-85
2021/05/21 03:34:19;;;;;;;;;;;;;;;;;;;;;
2021/05/21 03:37:11;;;;;;;1.20;1.10;;;15.20;84.40;;;;;;4939589;28;20463;-84
2021/05/21 03:39:48;;;;;;;1.53;1.23;;;15.20;84.90;;;;;;4927235;28;20937;-82
2021/05/21 03:42:22;;;;;;;2.40;0.93;;;15.20;85.20;;;;;;4925773;28;20726;-82
2021/05/21 03:44:53;;;;;;;0.93;0.90;;;15.30;84.90;;;;;;4918862;28;20498;-82
2021/05/21 03:47:59;;;;;;;1.60;1.10;;;15.30;84.70;;;;;;4943252;28;20470;-83
2021/05/21 03:50:35;;;;;;;2.20;0.90;;;15.10;85.80;;;;;;4985653;28;20459;-81
2021/05/21 03:53:24;;;;;;;;;;;;;;;;;;;;;
2021/05/21 03:55:55;;;;;;;2.80;1.10;;;14.90;86.10;;;;;;4997041;28;20472;-81
2021/05/21 03:58:25;;;;;;;2.73;1.53;;;15.20;86.60;;;;;;4984391;28;22228;-81
2021/05/21 04:01:16;;;;;;;1.53;1.03;;;15.20;85.90;;;;;;5004498;28;20457;-83
2021/05/21 04:03:48;;;;;;;2.50;1.40;;;15.20;85.90;;;;;;4993590;28;20502;-82
2021/05/21 04:07:05;;;;;;;1.00;0.83;;;15.00;86.40;;;;;;5015545;28;20421;-85
2021/05/21 04:10:01;;;;;;;;;;;;;;;;;;;;;
2021/05/21 04:12:48;;;;;;;2.70;0.97;;;15.20;86.70;;;;;;5005728;28;20474;-84
2021/05/21 04:19:39;;;;;;;1.40;1.20;;;15.20;86.80;;;;;;5049987;28;20510;-83
2021/05/21 04:23:21;;;;;;;1.80;1.00;;;14.90;87.50;;;;;;5046620;28;20448;-82
2021/05/21 04:26:11;;;;;;;5.70;1.00;;;15.10;88.00;;;;;;5045297;28;20483;-83
2021/05/21 04:28:55;;;;;;;1.60;0.90;;;15.10;87.70;;;;;;5059347;28;20805;-83
2021/05/21 04:35:24;;;;;;;1.10;0.97;;;15.00;88.10;;;;;;1417549;26;20534;-82
2021/05/21 04:37:58;;;;;;;3.00;1.13;;;15.10;88.00;;;;;;5007315;28;20859;-82
2021/05/21 04:44:29;;;;;;;2.80;1.20;;;15.20;88.20;;;;;;4876383;29;21098;-82
2021/05/21 04:46:56;;;;;;;0.97;0.97;;;15.20;88.10;;;;;;4896736;29;20473;-81
2021/05/21 04:49:32;;;;;;;0.80;0.80;;;15.20;88.20;;;;;;4897102;29;21511;-83
2021/05/21 04:52:04;;;;;;;1.90;1.00;;;15.30;88.20;;;;;;4898867;29;20470;-81
2021/05/21 04:54:33;;;;;;;3.00;1.13;;;15.20;88.10;;;;;;4895656;29;20580;-81
2021/05/21 04:57:00;;;;;;;1.47;1.10;;;15.20;88.00;;;;;;4893476;29;20462;-80
2021/05/21 04:59:27;;;;;;;1.53;1.27;;;15.20;88.50;;;;;;4884725;29;20718;-83
2021/05/21 05:01:54;;;;;;;1.53;1.00;;;15.40;88.10;;;;;;4893891;29;21133;-82
2021/05/21 05:04:22;;;;;;;1.23;1.03;;;15.50;87.20;;;;;;4881255;29;20487;-84
2021/05/21 05:06:49;;;;;;;1.40;1.30;;;15.50;87.30;;;;;;4900710;29;20553;-82
2021/05/21 05:09:16;;;;;;;2.80;1.40;;;15.50;87.70;;;;;;4898814;29;20823;-80
2021/05/21 05:11:44;;;;;;;1.13;1.00;;;15.70;87.00;;;;;;4900562;29;20455;-80
2021/05/21 05:14:12;;;;;;;2.50;1.30;;;15.70;86.50;;;;;;4906297;29;21020;-84
2021/05/21 05:16:43;;;;;;;2.00;1.30;;;15.70;86.90;;;;;;4905604;29;20492;-84
2021/05/21 05:19:11;;;;;;;2.30;1.00;;;15.70;86.60;;;;;;4885519;29;20467;-81
2021/05/21 05:21:44;;;;;;;3.00;1.20;;;15.50;87.50;;;;;;4942404;28;20455;-82
2021/05/21 05:24:19;;;;;;;3.50;1.23;;;15.70;86.80;;;;;;4998674;28;20475;-82
2021/05/21 05:26:48;;;;;;;2.07;1.30;;;15.60;87.00;;;;;;4984595;28;20481;-85
2021/05/21 05:29:15;;;;;;;4.50;1.30;;;15.70;87.20;;;;;;4983808;28;20459;-82
2021/05/21 05:31:46;;;;;;;1.53;1.17;;;15.70;86.90;;;;;;4999809;28;20482;-83
2021/05/21 05:34:14;;;;;;;1.70;1.00;;;15.70;86.60;;;;;;5001113;28;20479;-81
2021/05/21 05:36:42;;;;;;;3.97;1.10;;;15.90;86.30;;;;;;4986390;28;20458;-81
2021/05/21 05:39:11;;;;;;;1.50;1.00;;;15.80;86.10;;;;;;5008337;28;20454;-82
2021/05/21 05:41:39;;;;;;;2.17;1.30;;;15.90;86.40;;;;;;4988272;28;20447;-82
2021/05/21 05:44:07;;;;;;;1.90;1.37;;;15.90;86.50;;;;;;5091320;23;20484;-81
2021/05/21 05:51:07;;;;;;;1.23;1.17;;;16.00;86.00;;;;;;5040320;28;20440;-83
2021/05/21 05:57:33;;;;;;;1.60;1.10;;;16.10;85.60;;;;;;5017674;28;20428;-83
2021/05/21 06:00:33;;;;;;;1.30;1.07;;;16.00;85.70;;;;;;5059325;28;20460;-85
2021/05/21 06:03:34;;;;;;;2.30;1.20;;;16.00;85.70;;;;;;5034630;28;20571;-83
2021/05/21 06:08:38;;;;;;;1.63;1.47;;;15.90;86.00;;;;;;5034258;28;20478;-83
2021/05/21 06:11:10;;;;;;;2.17;1.30;;;15.90;86.20;;;;;;5014747;28;20461;-83
2021/05/21 06:13:39;;;;;;;1.47;1.37;;;15.80;86.70;;;;;;5006320;28;20461;-82
2021/05/21 06:16:20;;;;;;;1.50;1.20;;;15.80;87.30;;;;;;5004096;28;20457;-85
2021/05/21 06:18:48;;;;;;;3.00;1.07;;;15.70;87.30;;;;;;5003790;28;20472;-82
2021/05/21 06:21:16;;;;;;;3.40;1.60;;;15.50;88.00;;;;;;5020739;28;20528;-82
2021/05/21 06:25:05;;;;;;;3.60;1.60;;;15.80;87.70;;;;;;5004552;28;20474;-84
2021/05/21 06:27:55;;;;;;;2.20;1.20;;;16.00;86.50;;;;;;4949142;28;20650;-85
2021/05/21 06:30:47;;;;;;;2.40;1.30;;;16.10;85.80;;;;;;4940129;28;20455;-84
2021/05/21 06:33:32;;;;;;;1.30;1.17;;;16.20;85.10;;;;;;5011547;28;20473;-83
2021/05/21 06:36:02;;;;;;;4.20;1.57;;;16.30;84.50;;;;;;5004778;28;20527;-85
2021/05/21 06:38:29;;;;;;;4.87;1.37;;;16.50;83.40;;;;;;4998341;28;20484;-84
2021/05/21 06:40:59;;;;;;;3.33;2.03;;;16.60;83.20;;;;;;5019477;28;20521;-84
2021/05/21 06:43:28;;;;;;;3.33;1.37;;;16.70;82.20;;;;;;5017461;28;20473;-82
2021/05/21 06:45:59;;;;;;;2.00;1.13;;;16.80;81.50;;;;;;5002325;28;20496;-84
2021/05/21 06:48:31;;;;;;;1.37;1.23;;;16.90;80.90;;;;;;5020833;28;20512;-84
2021/05/21 06:51:10;;;;;;;2.07;1.10;;;16.90;80.90;;;;;;5012413;28;20460;-86
2021/05/21 06:53:56;;;;;;;3.50;1.60;;;16.90;80.40;;;;;;5029339;28;20466;-83
2021/05/21 06:56:25;;;;;;;3.63;1.43;;;17.10;79.70;;;;;;5008137;28;20465;-83
2021/05/21 06:58:55;;;;;;;2.97;1.87;;;17.20;79.20;;;;;;5022587;28;20473;-82
2021/05/21 07:01:34;;;;;;;2.60;1.30;;;17.50;78.60;;;;;;5022381;28;20465;-84
2021/05/21 07:04:32;;;;;;;2.77;1.50;;;17.60;78.20;;;;;;5003872;28;20470;-83
2021/05/21 07:07:18;;;;;;;2.17;1.03;;;17.60;77.70;;;;;;5008287;28;20469;-82
2021/05/21 07:09:55;;;;;;;4.77;1.50;;;17.10;78.60;;;;;;5005298;28;20465;-83
2021/05/21 07:12:36;;;;;;;8.10;2.03;;;16.80;78.60;;;;;;5281320;23;20497;-86
2021/05/21 07:15:13;;;;;;;3.37;1.40;;;16.90;78.30;;;;;;5050953;28;20476;-84
2021/05/21 07:18:03;;;;;;;2.30;1.40;;;16.80;77.10;;;;;;5017629;28;20453;-85
2021/05/21 07:20:47;;;;;;;3.50;1.80;;;16.70;76.90;;;;;;5032174;28;20463;-83
2021/05/21 07:27:44;;;;;;;2.37;1.20;;;17.00;74.50;;;;;;5000588;28;20516;-84
2021/05/21 07:30:25;;;;;;;5.70;2.20;;;17.20;72.90;;;;;;5027546;28;20489;-85
2021/05/21 07:33:29;;;;;;;5.83;2.30;;;17.00;73.40;;;;;;5009983;28;20468;-85
2021/05/21 07:36:01;;;;;;;4.20;1.40;;;16.70;73.20;;;;;;5024180;28;20470;-85
2021/05/21 07:38:36;;;;;;;3.37;1.67;;;16.80;72.10;;;;;;5010807;28;20438;-85
2021/05/21 07:41:36;;;;;;;2.23;1.50;;;17.00;71.30;;;;;;4981963;28;20443;-84
2021/05/21 07:44:55;;;;;;;2.60;1.30;;;16.70;70.50;;;;;;4984008;28;20577;-84
2021/05/21 07:47:41;;;;;;;3.77;1.40;;;16.50;71.40;;;;;;4983907;28;20478;-83
2021/05/21 07:50:23;;;;;;;2.97;1.10;;;16.60;70.80;;;;;;4969337;28;20569;-84
2021/05/21 07:52:53;;;;;;;4.43;1.60;;;16.70;69.00;;;;;;4987050;28;20642;-83
2021/05/21 07:55:29;;;;;;;2.43;1.20;;;17.00;67.30;;;;;;4983359;28;20453;-84
2021/05/21 07:58:29;;;;;;;3.23;1.80;;;16.60;68.30;;;;;;4986369;28;21174;-83
2021/05/21 08:01:50;;;;;;;4.53;1.33;;;16.40;69.20;;;;;;5005204;28;20532;-84
2021/05/21 08:07:44;;;;;;;2.60;1.40;;;17.10;68.00;;;;;;5018221;28;20457;-83
2021/05/21 08:10:19;;;;;;;2.53;1.40;;;17.00;67.80;;;;;;5028563;28;20465;-83
2021/05/21 08:13:13;;;;;;;2.37;1.27;;;17.00;66.30;;;;;;5011363;28;20527;-82
2021/05/21 08:16:09;;;;;;;2.60;1.33;;;17.30;64.70;;;;;;5011636;28;20464;-84
2021/05/21 08:19:02;;;;;;;2.13;1.10;;;17.20;64.60;;;;;;5026856;28;20456;-85
2021/05/21 08:22:25;;;;;;;3.30;1.50;;;17.40;61.70;;;;;;5011423;28;20502;-84
2021/05/21 08:25:12;;;;;;;3.87;1.47;;;17.70;60.90;;;;;;4995710;28;20527;-85
2021/05/21 08:28:28;;;;;;;;;;;;;;;;;;;;;
2021/05/21 08:30:58;;;;;;;5.67;2.00;;;17.80;61.90;;;;;;5025146;28;20540;-84
2021/05/21 08:33:25;;;;;;;3.17;1.30;;;18.00;61.10;;;;;;5008641;28;20530;-83
2021/05/21 08:35:57;;;;;;;4.40;1.30;;;18.00;61.10;;;;;;5023191;28;20854;-83
2021/05/21 08:38:48;;;;;;;;;;;;;;;;;;;;;
2021/05/21 08:42:06;;;;;;;7.13;1.63;;;18.10;60.60;;;;;;5026321;28;20954;-84
2021/05/21 08:45:25;;;;;;;2.10;1.40;;;19.70;58.20;;;;;;5009337;28;21120;-84
2021/05/21 08:48:14;;;;;;;2.80;1.63;;;19.40;56.70;;;;;;5002738;28;20438;-84
2021/05/21 08:50:42;;;;;;;11.13;2.87;;;20.10;57.60;;;;;;5030490;28;20460;-84
2021/05/21 08:53:09;;;;;;;5.20;1.40;;;22.00;54.10;;;;;;5011185;28;20771;-81
2021/05/21 08:55:39;;;;;;;5.90;1.70;;;23.00;51.60;;;;;;5008705;28;20544;-84
2021/05/21 08:58:11;;;;;;;6.47;1.83;;;24.20;49.10;;;;;;5010870;28;20550;-83
2021/05/21 09:00:40;;;;;;;4.57;1.60;;;24.10;46.50;;;;;;5027198;28;22322;-85
2021/05/21 09:03:28;;;;;;;5.53;1.97;;;24.30;45.30;;;;;;5030815;28;20476;-85
2021/05/21 09:06:21;;;;;;;3.70;1.50;;;24.20;44.70;;;;;;5027375;28;20501;-84
2021/05/21 09:08:59;;;;;;;3.47;1.33;;;23.10;44.00;;;;;;5033124;28;20603;-83
2021/05/21 09:11:39;;;;;;;2.70;1.50;;;21.50;45.60;;;;;;5037167;28;20610;-84
2021/05/21 09:14:15;;;;;;;6.27;1.57;;;20.90;47.50;;;;;;5028786;28;20473;-84
2021/05/21 09:16:44;;;;;;;3.10;1.60;;;20.60;48.30;;;;;;5029373;28;20534;-83
2021/05/21 09:19:22;;;;;;;6.67;1.30;;;21.10;47.80;;;;;;5028540;28;20465;-84
2021/05/21 09:21:59;;;;;;;5.43;1.70;;;21.60;46.40;;;;;;5010723;28;21034;-83
2021/05/21 09:24:33;;;;;;;7.03;1.80;;;21.50;46.50;;;;;;5007256;28;20501;-82
2021/05/21 09:27:01;;;;;;;2.70;1.20;;;22.00;46.20;;;;;;5025826;28;20481;-83
2021/05/21 09:29:37;;;;;;;6.47;1.50;;;23.40;44.70;;;;;;5029175;28;20955;-84
2021/05/21 09:32:24;;;;;;;3.77;1.33;;;24.00;41.90;;;;;;5033256;28;20460;-84
2021/05/21 09:35:12;;;;;;;6.57;1.70;;;22.10;43.70;;;;;;5029216;28;20561;-84
2021/05/21 09:37:47;;;;;;;3.37;1.20;;;21.60;45.40;;;;;;5011251;28;20458;-83
2021/05/21 09:40:18;;;;;;;4.00;1.80;;;21.40;45.80;;;;;;5027376;28;20554;-83
2021/05/21 09:42:56;;;;;;;5.30;1.60;;;21.80;45.20;;;;;;5032586;28;20509;-82
2021/05/21 09:45:38;;;;;;;5.90;2.13;;;22.20;45.30;;;;;;5023306;28;20472;-85
2021/05/21 09:48:10;;;;;;;6.67;1.63;;;21.90;44.90;;;;;;5040905;28;20471;-85
2021/05/21 09:50:49;;;;;;;4.57;1.33;;;21.10;46.30;;;;;;5049800;28;20468;-81
2021/05/21 09:53:21;;;;;;;7.57;1.60;;;20.40;46.50;;;;;;5052774;28;20526;-85
2021/05/21 09:55:53;;;;;;;6.07;2.20;;;20.30;47.10;;;;;;5060852;28;20461;-84
2021/05/21 09:58:41;;;;;;;3.10;1.47;;;20.80;46.40;;;;;;5061797;28;20468;-81
2021/05/21 10:01:22;;;;;;;4.37;1.60;;;20.80;45.80;;;;;;5025658;28;20619;-85
2021/05/21 10:03:58;;;;;;;4.30;1.60;;;21.50;44.80;;;;;;5019741;28;20483;-85
2021/05/21 10:06:27;;;;;;;3.47;1.50;;;21.70;43.60;;;;;;5017498;28;20460;-84
2021/05/21 10:08:56;;;;;;;5.33;1.43;;;20.60;45.50;;;;;;5038010;28;20461;-85
2021/05/21 10:11:25;;;;;;;5.17;2.33;;;20.70;45.90;;;;;;5016290;28;20453;-84
2021/05/21 10:13:52;;;;;;;5.00;1.50;;;21.00;45.40;;;;;;5022838;28;20496;-82
2021/05/21 10:21:10;;;;;;;3.90;1.57;;;22.00;43.90;;;;;;5040154;28;20431;-84
2021/05/21 10:23:42;;;;;;;2.97;1.50;;;22.70;42.40;;;;;;5003670;28;20475;-85
2021/05/21 10:26:32;;;;;;;5.10;1.90;;;22.60;42.40;;;;;;4991846;28;22283;-83
2021/05/21 10:33:31;;;;;;;4.10;1.50;;;22.30;42.20;;;;;;5036151;28;20548;-84
2021/05/21 10:37:02;;;;;;;2.60;1.43;;;21.60;42.50;;;;;;5008919;28;20889;-83
2021/05/21 10:40:44;;;;;;;5.40;2.03;;;21.50;43.00;;;;;;4986148;28;20451;-86
2021/05/21 10:44:14;;;;;;;4.83;2.00;;;22.50;41.30;;;;;;4987818;28;20512;-85
2021/05/21 10:47:24;;;;;;;7.67;2.50;;;22.50;41.30;;;;;;4940687;28;20492;-83
2021/05/21 10:50:19;;;;;;;5.80;1.70;;;22.00;40.60;;;;;;4975654;28;20459;-84
2021/05/21 10:56:45;;;;;;;3.93;1.50;;;21.90;41.40;;;;;;4922716;28;20498;-84
2021/05/21 10:59:51;;;;;;;4.30;1.60;;;22.40;40.50;;;;;;5014501;28;20461;-85
2021/05/21 11:02:53;;;;;;;5.07;1.50;;;22.80;40.00;;;;;;5050842;28;20464;-86
2021/05/21 11:05:35;;;;;;;3.10;1.33;;;22.60;38.80;;;;;;5040514;28;21128;-84
2021/05/21 11:08:03;;;;;;;6.10;1.60;;;22.10;39.40;;;;;;5034746;28;20842;-84
2021/05/21 11:10:32;;;;;;;5.37;1.80;;;23.10;38.80;;;;;;5016416;28;20476;-82
2021/05/21 11:13:07;;;;;;;4.07;1.43;;;23.00;38.80;;;;;;5031269;28;20508;-82
2021/05/21 11:15:39;;;;;;;3.37;1.50;;;23.30;38.10;;;;;;5032109;28;20502;-83
2021/05/21 11:18:20;;;;;;;5.07;2.00;;;23.20;37.00;;;;;;5032072;28;20517;-85
2021/05/21 11:20:55;;;;;;;3.40;1.40;;;23.20;37.30;;;;;;5033381;28;20461;-85
2021/05/21 11:23:37;;;;;;;3.70;1.47;;;22.50;38.00;;;;;;5014630;28;20477;-84
2021/05/21 11:26:27;;;;;;;;;;;;;;;;;;;;;
2021/05/21 11:30:09;;;;;;;5.63;1.70;;;21.20;39.90;;;;;;5034857;28;20476;-83
2021/05/21 11:32:42;;;;;;;3.93;1.77;;;21.60;40.50;;;;;;5016432;28;20488;-83
2021/05/21 11:35:12;;;;;;;5.70;1.50;;;21.80;39.60;;;;;;5013528;28;20450;-82
2021/05/21 11:38:24;;;;;;;3.20;1.57;;;21.70;39.20;;;;;;5022110;28;20552;-84
2021/05/21 11:41:57;;;;;;;2.63;1.10;;;21.10;40.10;;;;;;5033996;28;21062;-84
2021/05/21 11:44:26;;;;;;;6.60;1.60;;;21.00;41.10;;;;;;4986634;28;20481;-82
2021/05/21 11:46:59;;;;;;;2.73;1.43;;;20.70;40.80;;;;;;5038725;28;20508;-84
2021/05/21 11:49:53;;;;;;;4.53;1.33;;;21.00;40.80;;;;;;5051114;28;20437;-85
2021/05/21 11:52:47;;;;;;;5.23;1.70;;;21.20;40.30;;;;;;5042021;28;20477;-86
2021/05/21 11:55:20;;;;;;;3.83;1.10;;;21.20;40.70;;;;;;5055523;28;20616;-83
2021/05/21 11:58:37;;;;;;;;;;;;;;;;;;;;;
2021/05/21 12:05:07;;;;;;;3.90;2.10;;;20.70;42.00;;;;;;5023029;28;20837;-83
2021/05/21 12:07:45;;;;;;;4.80;1.50;;;21.00;42.10;;;;;;5017316;28;20495;-83
2021/05/21 12:10:14;;;;;;;2.97;1.30;;;21.90;41.20;;;;;;5033117;28;20472;-84
2021/05/21 12:13:11;;;;;;;4.33;1.40;;;22.30;40.00;;;;;;5039368;28;20455;-85
2021/05/21 12:15:41;;;;;;;7.90;1.57;;;22.30;39.10;;;;;;5036248;28;20472;-83
2021/05/21 12:22:02;;;;;;;6.80;1.67;;;23.10;37.60;;;;;;4976727;28;20441;-82
2021/05/21 12:24:31;;;;;;;6.20;2.00;;;22.50;37.70;;;;;;5017232;28;20538;-83
2021/05/21 12:27:00;;;;;;;2.63;1.50;;;22.30;38.40;;;;;;5042223;28;20505;-83
2021/05/21 12:29:37;;;;;;;5.27;1.50;;;21.80;38.60;;;;;;5025272;28;20469;-80
2021/05/21 12:32:08;;;;;;;3.30;1.53;;;21.10;39.90;;;;;;5028690;28;20492;-83
2021/05/21 12:35:05;;;;;;;3.33;1.40;;;21.00;40.70;;;;;;5045720;28;20453;-80
2021/05/21 12:38:24;;;;;;;2.70;1.50;;;20.70;41.60;;;;;;5024661;28;21033;-84
2021/05/21 12:41:18;;;;;;;3.40;1.37;;;20.60;42.00;;;;;;5021555;28;20537;-83
2021/05/21 12:43:46;;;;;;;5.13;1.57;;;20.70;42.50;;;;;;5022881;28;20512;-84
2021/05/21 12:46:34;;;;;;;5.27;2.20;;;20.70;41.80;;;;;;5022566;28;20480;-83
2021/05/21 12:52:53;;;;;;;6.17;2.00;;;20.70;40.70;;;;;;5039366;28;20514;-86
2021/05/21 12:55:26;;;;;;;3.73;1.40;;;20.50;41.20;;;;;;5039844;28;20460;-84
2021/05/21 12:58:06;;;;;;;7.70;1.73;;;20.40;41.60;;;;;;5045251;28;20960;-84
2021/05/21 13:01:03;;;;;;;6.63;1.80;;;20.50;42.00;;;;;;5047695;28;20456;-84
2021/05/21 13:04:09;;;;;;;4.80;2.10;;;20.40;42.90;;;;;;5044213;28;20480;-84
2021/05/21 13:07:13;;;;;;;6.43;2.23;;;20.60;43.50;;;;;;5039309;28;20483;-83
2021/05/21 13:09:42;;;;;;;5.93;1.80;;;20.60;42.40;;;;;;5054710;28;20496;-84
2021/05/21 13:12:16;;;;;;;5.87;1.70;;;20.30;43.00;;;;;;5048733;28;20450;-84
2021/05/21 13:15:22;;;;;;;3.00;1.33;;;20.50;43.20;;;;;;5054676;28;20463;-84
2021/05/21 13:18:12;;;;;;;4.73;1.60;;;20.50;43.40;;;;;;5056852;28;20468;-84
2021/05/21 13:20:55;;;;;;;3.97;1.30;;;20.40;43.60;;;;;;5042916;28;20486;-84
2021/05/21 13:30:38;;;;;;;6.60;1.70;;;20.30;44.10;;;;;;5057614;28;20420;-88
2021/05/21 13:33:37;;;;;;;4.30;1.60;;;20.60;43.30;;;;;;5043355;28;20537;-87
2021/05/21 13:36:23;;;;;;;4.53;1.67;;;21.90;41.50;;;;;;5050142;28;20453;-85
2021/05/21 13:38:53;;;;;;;4.33;2.37;;;21.20;41.60;;;;;;5046967;28;20452;-84
2021/05/21 13:49:33;;;;;;;;;;;;;;;;;;;;;
2021/05/21 14:34:20;;;;;;;8.90;2.00;;;20.80;40.80;;;;;;4386042;23;20479;-85
2021/05/21 14:37:50;;;;;;;6.80;2.20;;;21.10;40.20;;;;;;4943458;28;20434;-84
2021/05/21 14:40:17;;;;;;;4.90;1.50;;;21.00;39.90;;;;;;5007603;28;20438;-84
2021/05/21 14:43:05;;;;;;;3.80;1.67;;;20.90;39.90;;;;;;5001120;28;20478;-84
2021/05/21 14:53:09;;;;;;;3.60;1.37;;;21.30;39.50;;;;;;5011341;28;20458;-86
2021/05/21 14:56:31;;;;;;;3.47;1.77;;;21.30;39.50;;;;;;4971621;28;20883;-84
2021/05/21 15:30:56;;;;;;;4.40;1.50;;;21.00;39.60;;;;;;4976897;28;20943;-80
2021/05/21 15:41:29;;;;;;;2.67;1.30;;;20.80;39.80;;;;;;4908886;29;20572;-82
2021/05/21 15:48:03;;;;;;;5.03;1.40;;;20.40;42.50;;;;;;4805667;29;20483;-79
2021/05/21 16:09:34;;;;;;;5.53;1.90;;;20.10;43.90;;;;;;4908552;29;20458;-80
2021/05/21 16:12:53;;;;;;;5.97;1.73;;;19.90;44.70;;;;;;4913888;28;20452;-80
2021/05/21 16:19:48;;;;;;;5.20;1.97;;;19.80;46.50;;;;;;4933010;29;20412;-80
2021/05/21 16:30:20;;;;;;;4.83;2.40;;;19.20;50.80;;;;;;4946946;28;20455;-81
2021/05/21 16:32:59;;;;;;;3.73;1.80;;;19.10;51.60;;;;;;4990848;28;20485;-80
2021/05/21 16:39:30;;;;;;;3.30;1.50;;;18.90;53.50;;;;;;4978351;28;20422;-81
2021/05/21 16:42:22;;;;;;;9.30;2.67;;;18.70;53.40;;;;;;4976857;28;21558;-83
2021/05/21 16:46:07;;;;;;;10.90;2.90;;;18.70;53.50;;;;;;4961255;28;21506;-80
2021/05/21 16:52:50;;;;;;;9.10;3.40;;;18.50;53.20;;;;;;4982726;28;20465;-79
2021/05/21 16:56:02;;;;;;;2.73;1.40;;;18.20;55.00;;;;;;4976090;28;20442;-80
2021/05/21 16:59:06;;;;;;;6.00;2.40;;;17.80;56.40;;;;;;4983311;28;20451;-80
2021/05/21 17:02:17;;;;;;;2.33;1.10;;;17.80;59.10;;;;;;4987410;28;20455;-81
2021/05/21 17:05:17;;;;;;;5.40;1.53;;;17.90;60.40;;;;;;4972561;28;20748;-83
2021/05/21 17:08:10;;;;;;;1.67;1.57;;;18.10;58.60;;;;;;4993928;28;20480;-80
2021/05/21 17:11:25;;;;;;;4.97;1.73;;;17.90;60.70;;;;;;4989469;28;20456;-80
2021/05/21 17:43:20;;;;;;;4.27;1.87;;;18.30;52.10;;;;;;4899369;29;20457;-80
2021/05/21 17:46:09;;;;;;;;;;;;;;;;;;;;;
2021/05/21 18:10:09;;;;;;;3.57;1.60;;;17.80;55.50;;;;;;4977456;28;20498;-81
2021/05/21 19:05:33;;;;;;;4.03;3.17;;;;;;;;;;4915965;28;20553;-81
2021/05/21 19:08:24;;;;;;;5.20;4.10;;;;;;;;;;4934088;28;20516;-79
2021/05/21 19:17:57;;;;;;;4.63;2.63;;;;;;;;;;5032459;28;20468;-81
2021/05/21 19:20:48;;;;;;;4.67;2.10;;;;;;;;;;5019105;28;20457;-82
2021/05/21 19:23:46;;;;;;;4.77;1.47;;;;;;;;;;5008916;28;20453;-81
2021/05/21 19:26:37;;;;;;;4.40;1.90;;;;;;;;;;5030205;28;20467;-83
2021/05/21 19:32:24;;;;;;;7.27;1.87;;;;;;;;;;5031596;28;20441;-82
2021/05/21 20:14:52;;;;;;;3.20;1.77;;;;;;;;;;4976359;28;20526;-81
2021/05/21 20:18:01;;;;;;;4.53;2.13;;;;;;;;;;4945490;28;20440;-82
2021/05/21 20:20:43;;;;;;;4.63;2.30;;;;;;;;;;4943326;28;20427;-79
2021/05/21 20:27:42;;;;;;;;;;;;;;;;;;;;;